Terminal Aerodrome Forecast
Issued by NWS

Home | Current Version | Previous Version | Text Only | Print | Product List | Glossary On
Versions: 1 2 3 4 5 6 7 8 9 10 11 12 13 14 15 16 17 18 19 20 21 22 23 24 25 26 27 28 29 30 31 32 33 34 35 36 37 38 39 40 41 42
000
FTUS43 KDLH 190200 AAG
TAFHYR
TAF AMD
KHYR 190243Z 1903/1924 00000KT P6SM VCTS BKN035CB BKN045
      TEMPO 1903/1904 28003G16KT 1SM +TSRA BR SCT007 BKN045CB
     FM190400 VRB02KT 4SM BR VCSH SCT015 BKN026
     FM190600 00000KT 3/4SM BR VCSH OVC002
     FM191500 34003KT P6SM VCSH OVC025=

USA.gov is the U.S. government's official web portal to all federal, state and local government web resources and services.